< Typhoon 196102 1961 Season Typhoon 196104 >
Typhoon 196103 (ALICE)
General InformationTrack Information on Google Maps || Disaster Info.ResourceGoogle EarthGE AnimationAtom FeedGeoJSON
Detalied Best Track (Time Zone = UTC)
Year Month Day Hour Lat. Long. Pressure (hPa) Wind (kt) Class Image Chart
1961 5 15 18 13.3 118.0 1004 0 2 -- Chart
1961 5 16 00 13.7 117.5 1004 0 2 -- Chart
1961 5 16 06 14.0 117.0 1000 0 2 -- Chart
1961 5 16 12 14.3 116.5 1000 0 2 -- Chart
1961 5 16 18 14.8 116.0 1000 0 2 -- Chart
1961 5 17 00 15.2 115.3 998 0 2 -- Chart
1961 5 17 06 15.8 114.8 995 0 9 -- Chart
1961 5 17 12 16.2 114.6 992 0 9 -- Chart
1961 5 17 18 16.9 114.2 990 0 9 -- Chart
1961 5 18 00 17.5 113.9 985 0 9 -- Chart
1961 5 18 06 18.4 113.7 985 0 9 -- Chart
1961 5 18 12 19.4 113.6 985 0 9 -- Chart
1961 5 18 18 20.4 113.4 985 0 9 -- Chart
1961 5 19 00 21.2 113.4 980 0 9 -- Chart
1961 5 19 06 22.5 114.0 980 0 9 -- Chart
1961 5 19 12 23.8 115.0 990 0 9 -- Chart
1961 5 19 18 25.0 115.9 992 0 9 -- Chart
1961 5 20 00 26.4 117.6 996 0 2 -- Chart
1961 5 20 06 27.7 119.8 996 0 2 -- Chart
1961 5 20 12 28.7 122.3 996 0 6 -- Chart
1961 5 20 18 29.5 124.9 996 0 6 -- Chart
1961 5 21 00 29.7 127.5 994 0 6 -- Chart
1961 5 21 06 29.4 131.1 996 0 6 -- Chart
1961 5 21 12 29.8 134.4 996 0 6 -- Chart
1961 5 21 18 30.5 137.4 996 0 6 -- Chart
1961 5 22 00 31.2 140.0 998 0 6 -- Chart
1961 5 22 06 31.7 144.0 1000 0 6 -- Chart
1961 5 22 12 32.3 146.5 1004 0 6 -- Chart
1961 5 22 18 33.0 149.0 1004 0 6 -- Chart
Japan Meteorological Agency Best Track Data | Correction Date : 1989-06-01
< Typhoon 196102 1961 Season Typhoon 196104 >

Help